Prime Lily — V7YJ2 — position and weather

sailwx.info

Track history (hours):
 
Tides and Currents Weather Stations Pressure Air Temp Water Temp Dewpoint Dewpoint Depression Visibility Wind Speed Wind Dir Waves Ship Positions

Prime Lily

Last reported at 2018-May-26 20:12 UTC. Time now 2018-Jun-24 05:10 UTC.
Position N 25°41' W 079°30'.
Warning: this ship's position is 28 days out of date.

Length 229 m; draft 7 m.

Type: Cargo ship. MMSI: 538004671.

Date/timePositionNaut miles runAvg speedWind from/ knotsBaromVisibWave heightAir tempDewpointWater temp
2018-May-26 20:12N 25°41' W 079°30'2 8.6
2018-May-26 20:00N 25°43' W 079°31'9 9.7
2018-May-26 19:02N 25°52' W 079°28'0 9.4
2018-May-26 19:00N 25°52' W 079°28'1810.5
2018-May-26 17:20N 26°08' W 079°20'  
2018-May-18 03:56N 37°34' W 030°07'712.9
2018-May-18 03:22N 37°34' W 029°57'512.7
2018-May-18 03:00N 37°34' W 029°52'712.7
2018-May-18 02:29N 37°34' W 029°43'612.8
2018-May-18 02:00N 37°34' W 029°36'713.3
2018-May-18 01:30N 37°35' W 029°27'713.2
2018-May-18 01:00N 37°35' W 029°19'713.1
2018-May-18 00:30N 37°35' W 029°11'612.8
2018-May-18 00:00N 37°35' W 029°03'712.9
2018-May-17 23:30N 37°36' W 028°54'612.9
2018-May-17 23:00N 37°36' W 028°46'612.9
2018-May-17 22:30N 37°36' W 028°38'612.9
2018-May-17 22:00N 37°36' W 028°30'613.0
2018-May-17 21:30N 37°36' W 028°22'713.1
2018-May-17 21:00N 37°36' W 028°14'713.1
2018-May-17 20:31N 37°36' W 028°05'713.0
2018-May-17 20:00N 37°36' W 027°57'612.9
2018-May-17 19:30N 37°36' W 027°49'713.2
2018-May-17 19:01N 37°35' W 027°41'713.0
2018-May-17 18:30N 37°35' W 027°32'713.2
2018-May-17 18:00N 37°34' W 027°24'713.3
2018-May-17 17:30N 37°34' W 027°16'1913.3
2018-May-17 16:06N 37°33' W 026°52'113.2
2018-May-17 16:00N 37°33' W 026°50'713.3
2018-May-17 15:30N 37°33' W 026°42'713.2
2018-May-17 15:00N 37°33' W 026°34'713.6
2018-May-17 14:30N 37°32' W 026°25'713.3
2018-May-17 14:00N 37°32' W 026°17'612.9
2018-May-17 13:30N 37°32' W 026°09'612.9
2018-May-17 13:00N 37°31' W 026°01'612.6
2018-May-17 12:31N 37°31' W 025°53'612.8
2018-May-17 12:00N 37°31' W 025°45'713.1
2018-May-17 11:30N 37°30' W 025°36'612.8
2018-May-17 11:00N 37°30' W 025°28'612.8
2018-May-17 10:30N 37°30' W 025°20'713.1
2018-May-17 10:00N 37°29' W 025°12'713.3
2018-May-17 09:30N 37°29' W 025°04'713.1
2018-May-17 09:00N 37°29' W 024°55'612.8
2018-May-17 08:30N 37°29' W 024°47'612.9
2018-May-17 08:01N 37°29' W 024°39'612.7
2018-May-17 07:30N 37°29' W 024°31'612.8
2018-May-17 07:00N 37°29' W 024°23'612.9
2018-May-17 06:31N 37°29' W 024°15'612.7
2018-May-17 06:00N 37°29' W 024°07'612.8
2018-May-17 05:30N 37°29' W 023°59'612.5
2018-May-17 05:01N 37°29' W 023°51'  
Track history (hours):
 
Tides and Currents Weather Stations Pressure Air Temp Water Temp Dewpoint Dewpoint Depression Visibility Wind Speed Wind Dir Waves Ship Positions

Prime Lily

Last reported at 2018-May-26 20:12 UTC. Time now 2018-Jun-24 05:10 UTC.
Position N 25°41' W 079°30'.
Warning: this ship's position is 28 days out of date.

Length 229 m; draft 7 m.

Type: Cargo ship. MMSI: 538004671.

Date/timePositionNaut miles runAvg speedWind from/ knotsBaromVisibWave heightAir tempDewpointWater temp
2018-May-26 20:12N 25°41' W 079°30'2 8.6
2018-May-26 20:00N 25°43' W 079°31'9 9.7
2018-May-26 19:02N 25°52' W 079°28'0 9.4
2018-May-26 19:00N 25°52' W 079°28'1810.5
2018-May-26 17:20N 26°08' W 079°20'  
2018-May-18 03:56N 37°34' W 030°07'712.9
2018-May-18 03:22N 37°34' W 029°57'512.7
2018-May-18 03:00N 37°34' W 029°52'712.7
2018-May-18 02:29N 37°34' W 029°43'612.8
2018-May-18 02:00N 37°34' W 029°36'713.3
2018-May-18 01:30N 37°35' W 029°27'713.2
2018-May-18 01:00N 37°35' W 029°19'713.1
2018-May-18 00:30N 37°35' W 029°11'612.8
2018-May-18 00:00N 37°35' W 029°03'712.9
2018-May-17 23:30N 37°36' W 028°54'612.9
2018-May-17 23:00N 37°36' W 028°46'612.9
2018-May-17 22:30N 37°36' W 028°38'612.9
2018-May-17 22:00N 37°36' W 028°30'613.0
2018-May-17 21:30N 37°36' W 028°22'713.1
2018-May-17 21:00N 37°36' W 028°14'713.1
2018-May-17 20:31N 37°36' W 028°05'713.0
2018-May-17 20:00N 37°36' W 027°57'612.9
2018-May-17 19:30N 37°36' W 027°49'713.2
2018-May-17 19:01N 37°35' W 027°41'713.0
2018-May-17 18:30N 37°35' W 027°32'713.2
2018-May-17 18:00N 37°34' W 027°24'713.3
2018-May-17 17:30N 37°34' W 027°16'1913.3
2018-May-17 16:06N 37°33' W 026°52'113.2
2018-May-17 16:00N 37°33' W 026°50'713.3
2018-May-17 15:30N 37°33' W 026°42'713.2
2018-May-17 15:00N 37°33' W 026°34'713.6
2018-May-17 14:30N 37°32' W 026°25'713.3
2018-May-17 14:00N 37°32' W 026°17'612.9
2018-May-17 13:30N 37°32' W 026°09'612.9
2018-May-17 13:00N 37°31' W 026°01'612.6
2018-May-17 12:31N 37°31' W 025°53'612.8
2018-May-17 12:00N 37°31' W 025°45'713.1
2018-May-17 11:30N 37°30' W 025°36'612.8
2018-May-17 11:00N 37°30' W 025°28'612.8
2018-May-17 10:30N 37°30' W 025°20'713.1
2018-May-17 10:00N 37°29' W 025°12'713.3
2018-May-17 09:30N 37°29' W 025°04'713.1
2018-May-17 09:00N 37°29' W 024°55'612.8
2018-May-17 08:30N 37°29' W 024°47'612.9
2018-May-17 08:01N 37°29' W 024°39'612.7
2018-May-17 07:30N 37°29' W 024°31'612.8
2018-May-17 07:00N 37°29' W 024°23'612.9
2018-May-17 06:31N 37°29' W 024°15'612.7
2018-May-17 06:00N 37°29' W 024°07'612.8
2018-May-17 05:30N 37°29' W 023°59'612.5
2018-May-17 05:01N 37°29' W 023°51'  

Dump ship's entire track history